Time;durP1;ratioP1;P1;durP2;ratioP2;P2;SDS_P1;SDS_P2;PMS_P1;PMS_P2;Temp;Humidity;BMP_temperature;BMP_pressure;BME280_temperature;BME280_humidity;BME280_pressure;Samples;Min_cycle;Max_cycle;Signal;HPM_P1;HPM_P2
2023/10/08 00:01:19;;;;;;;12.17;3.90;;;;;;;15.86;93.49;102092.88;5017235;28;20462;-87
2023/10/08 00:03:49;;;;;;;8.30;3.70;;;;;;;15.84;93.50;102108.66;5016224;28;20103;-88
2023/10/08 00:06:20;;;;;;;11.70;3.65;;;;;;;15.81;93.48;102120.03;5016196;28;20500;-88
2023/10/08 00:08:46;;;;;;;9.90;4.07;;;;;;;15.76;93.88;102124.25;5032965;28;20049;-88
2023/10/08 00:11:11;;;;;;;10.30;3.63;;;;;;;15.72;93.70;102122.16;5016088;28;20452;-88
2023/10/08 00:13:42;;;;;;;10.27;4.18;;;;;;;15.69;94.24;102128.09;4999591;28;20501;-88
2023/10/08 00:16:15;;;;;;;12.17;3.67;;;;;;;15.62;94.59;102117.19;5015935;28;20037;-88
2023/10/08 00:18:44;;;;;;;10.25;3.85;;;;;;;15.51;94.93;102118.69;5016964;28;20128;-88
2023/10/08 00:21:16;;;;;;;9.13;3.50;;;;;;;15.52;94.67;102122.28;5015941;28;20061;-87
2023/10/08 00:23:49;;;;;;;10.32;4.03;;;;;;;15.44;95.34;102128.81;5016312;28;20041;-87
2023/10/08 00:26:18;;;;;;;9.05;3.83;;;;;;;15.38;95.58;102130.53;5015878;28;20501;-88
2023/10/08 00:28:47;;;;;;;10.63;4.03;;;;;;;15.32;96.13;102133.28;5032338;28;20041;-88
2023/10/08 00:31:17;;;;;;;10.40;3.58;;;;;;;15.27;96.32;102128.47;5016940;28;20048;-88
2023/10/08 00:33:44;;;;;;;14.75;4.15;;;;;;;15.22;96.80;102134.59;5033640;28;20030;-88
2023/10/08 00:36:19;;;;;;;9.48;3.75;;;;;;;15.19;97.31;102139.63;5033643;28;20036;-87
2023/10/08 00:38:50;;;;;;;11.50;3.88;;;;;;;15.13;97.35;102133.13;4999708;28;20056;-88
2023/10/08 00:41:21;;;;;;;11.00;4.07;;;;;;;15.11;98.13;102135.25;5016248;28;20527;-88
2023/10/08 00:43:54;;;;;;;9.90;4.07;;;;;;;15.03;98.67;102125.38;5033691;28;20124;-88
2023/10/08 00:46:25;;;;;;;8.55;3.90;;;;;;;14.99;99.19;102134.25;5025988;28;20080;-87
2023/10/08 00:48:55;;;;;;;11.00;4.10;;;;;;;14.91;99.92;102138.88;5016171;28;20068;-88
2023/10/08 00:54:10;;;;;;;13.27;4.70;;;;;;;14.83;100.00;102147.28;5033319;28;20041;-87
2023/10/08 00:59:15;;;;;;;10.13;3.88;;;;;;;14.74;100.00;102141.19;5033771;28;20068;-88
2023/10/08 01:02:28;;;;;;;10.57;4.57;;;;;;;14.70;100.00;102145.44;5015640;28;20044;-87
2023/10/08 01:04:37;;;;;;;10.93;4.20;;;;;;;14.65;100.00;102138.91;5026532;28;20049;-87
2023/10/08 01:07:18;;;;;;;9.73;3.97;;;;;;;14.56;100.00;102132.78;5015593;28;20033;-87
2023/10/08 01:09:50;;;;;;;9.95;4.20;;;;;;;14.52;100.00;102131.53;5001290;28;20050;-88
2023/10/08 01:12:39;;;;;;;11.75;4.07;;;;;;;14.50;100.00;102128.19;5015707;28;20042;-87
2023/10/08 01:15:28;;;;;;;12.52;4.60;;;;;;;14.41;100.00;102118.50;5015907;28;20108;-87
2023/10/08 01:18:14;;;;;;;10.45;4.43;;;;;;;14.34;100.00;102110.31;5016416;28;20038;-87
2023/10/08 01:20:52;;;;;;;16.43;4.47;;;;;;;14.29;100.00;102123.72;5015862;28;20045;-88
2023/10/08 01:23:21;;;;;;;8.57;3.95;;;;;;;14.20;100.00;102123.97;5015724;28;20069;-87
2023/10/08 01:25:52;;;;;;;10.05;4.35;;;;;;;14.14;100.00;102122.06;5015076;28;20037;-88
2023/10/08 01:28:25;;;;;;;12.07;4.40;;;;;;;14.08;100.00;102122.03;5015796;28;20386;-87
2023/10/08 01:30:54;;;;;;;10.73;4.43;;;;;;;14.04;100.00;102116.19;5015602;28;20497;-87
2023/10/08 01:33:25;;;;;;;7.40;3.70;;;;;;;14.02;100.00;102110.94;5015601;28;20406;-88
2023/10/08 01:35:51;;;;;;;8.20;3.63;;;;;;;13.99;100.00;102100.41;5015701;28;20139;-87
2023/10/08 01:38:23;;;;;;;7.47;3.73;;;;;;;13.96;100.00;102099.97;5015442;28;20449;-88
2023/10/08 01:40:51;;;;;;;9.48;3.97;;;;;;;13.93;100.00;102100.41;5034548;28;20048;-87
2023/10/08 01:43:18;;;;;;;12.45;4.47;;;;;;;13.90;100.00;102096.19;5036640;28;20038;-88
2023/10/08 01:45:48;;;;;;;8.98;4.30;;;;;;;13.86;100.00;102097.66;5018752;28;20506;-87
2023/10/08 01:48:37;;;;;;;11.73;5.03;;;;;;;13.83;100.00;102100.78;5019007;28;20041;-87
2023/10/08 01:51:01;;;;;;;11.07;4.43;;;;;;;13.85;100.00;102105.00;5036138;28;20374;-87
2023/10/08 01:53:31;;;;;;;13.65;4.60;;;;;;;13.85;100.00;102110.47;5002843;28;20046;-87
2023/10/08 01:55:58;;;;;;;10.65;4.30;;;;;;;13.88;100.00;102113.81;5018615;28;20045;-87
2023/10/08 01:58:23;;;;;;;11.65;4.40;;;;;;;13.89;100.00;102113.59;5018645;28;20049;-87
2023/10/08 02:00:54;;;;;;;10.27;4.53;;;;;;;13.91;100.00;102127.06;5036351;28;20037;-87
2023/10/08 02:03:19;;;;;;;21.05;4.75;;;;;;;13.93;100.00;102139.44;5019251;28;20469;-87
2023/10/08 02:05:46;;;;;;;10.83;4.33;;;;;;;13.91;100.00;102141.53;5018787;28;20049;-87
2023/10/08 02:08:12;;;;;;;10.95;4.55;;;;;;;13.94;100.00;102127.47;5018707;28;20057;-87
2023/10/08 02:10:40;;;;;;;11.73;5.28;;;;;;;13.94;100.00;102143.84;5018396;28;20048;-87
2023/10/08 02:13:09;;;;;;;13.05;4.68;;;;;;;13.95;100.00;102137.34;5018618;28;20045;-87
2023/10/08 02:15:36;;;;;;;10.93;4.93;;;;;;;13.94;100.00;102132.09;5018334;28;20378;-87
2023/10/08 02:18:03;;;;;;;10.97;4.17;;;;;;;13.96;100.00;102128.09;5018556;28;20048;-87
2023/10/08 02:20:32;;;;;;;15.30;4.50;;;;;;;13.95;100.00;102123.72;5017900;28;20061;-87
2023/10/08 02:22:59;;;;;;;14.00;4.88;;;;;;;13.96;100.00;102130.00;5018506;28;20049;-87
2023/10/08 02:25:27;;;;;;;9.77;4.13;;;;;;;13.95;100.00;102128.31;5018848;28;20048;-88
2023/10/08 02:27:53;;;;;;;11.48;4.72;;;;;;;13.94;100.00;102127.47;5018139;28;20034;-87
2023/10/08 02:30:18;;;;;;;9.43;4.23;;;;;;;13.95;100.00;102131.91;5018942;28;20037;-87
2023/10/08 02:32:46;;;;;;;10.70;4.63;;;;;;;13.96;100.00;102128.09;5036320;28;20092;-87
2023/10/08 02:35:12;;;;;;;11.07;4.38;;;;;;;13.95;100.00;102123.72;5017946;28;20084;-87
2023/10/08 02:37:41;;;;;;;10.70;4.55;;;;;;;13.94;100.00;102135.66;5017832;28;20045;-87
2023/10/08 02:43:00;;;;;;;11.57;4.20;;;;;;;13.94;100.00;102132.09;5019537;28;20041;-87
2023/10/08 02:45:27;;;;;;;12.77;4.47;;;;;;;13.93;100.00;102144.06;5017475;28;20029;-87
2023/10/08 02:47:53;;;;;;;8.45;4.35;;;;;;;13.95;100.00;102151.00;5017814;28;20064;-87
2023/10/08 02:50:19;;;;;;;14.32;4.40;;;;;;;13.94;100.00;102160.22;5017927;28;20038;-87
2023/10/08 02:52:45;;;;;;;8.55;4.25;;;;;;;13.96;100.00;102160.00;5034475;28;20519;-87
2023/10/08 02:55:25;;;;;;;12.67;4.77;;;;;;;13.96;100.00;102154.56;5017589;28;20038;-88
2023/10/08 02:57:51;;;;;;;10.77;4.28;;;;;;;13.95;100.00;102155.59;5018444;28;20037;-87
2023/10/08 03:00:20;;;;;;;11.70;4.50;;;;;;;13.94;100.00;102148.47;5017938;28;20048;-88
2023/10/08 03:02:48;;;;;;;8.57;4.32;;;;;;;13.93;100.00;102153.06;5035227;28;20045;-87
2023/10/08 03:05:16;;;;;;;14.60;5.30;;;;;;;13.96;100.00;102149.09;5018130;28;20076;-87
2023/10/08 03:07:42;;;;;;;14.23;4.67;;;;;;;13.95;100.00;102156.44;5017506;28;20470;-87
2023/10/08 03:10:17;;;;;;;11.65;4.43;;;;;;;13.95;100.00;102148.28;5017356;28;20124;-87
2023/10/08 03:12:43;;;;;;;14.53;4.30;;;;;;;13.97;100.00;102148.88;5017288;28;20128;-87
2023/10/08 03:17:53;;;;;;;9.60;4.13;;;;;;;13.99;100.00;102151.41;5035006;28;20504;-87
2023/10/08 03:20:29;;;;;;;12.63;4.37;;;;;;;14.02;100.00;102167.38;5017042;28;20077;-88
2023/10/08 03:22:56;;;;;;;10.00;4.28;;;;;;;14.01;100.00;102169.25;5017142;28;20033;-87
2023/10/08 03:25:24;;;;;;;15.95;4.97;;;;;;;14.02;100.00;102175.56;5016836;28;20076;-87
2023/10/08 03:27:50;;;;;;;12.88;4.97;;;;;;;14.04;100.00;102176.22;5016658;28;20037;-88
2023/10/08 03:30:16;;;;;;;16.98;4.47;;;;;;;14.01;100.00;102179.31;5016847;28;20041;-87
2023/10/08 03:32:45;;;;;;;11.70;4.53;;;;;;;14.03;100.00;102174.53;5017142;28;20041;-87
2023/10/08 03:35:14;;;;;;;11.30;4.35;;;;;;;14.01;100.00;102173.88;5017269;28;20045;-87
2023/10/08 03:37:46;;;;;;;10.25;4.32;;;;;;;14.02;100.00;102167.38;5017954;28;20450;-87
2023/10/08 03:40:42;;;;;;;10.98;4.40;;;;;;;13.99;100.00;102170.50;5016720;28;20104;-87
2023/10/08 03:43:15;;;;;;;12.00;4.78;;;;;;;13.98;100.00;102174.28;5016801;28;20048;-88
2023/10/08 03:45:53;;;;;;;12.40;4.57;;;;;;;13.95;100.00;102182.88;5016945;28;20124;-87
2023/10/08 03:48:22;;;;;;;13.35;4.53;;;;;;;13.93;100.00;102180.34;5017274;28;20067;-88
2023/10/08 03:50:56;;;;;;;14.82;5.13;;;;;;;13.92;100.00;102178.69;5034264;28;20041;-87
2023/10/08 03:53:24;;;;;;;10.40;3.90;;;;;;;13.91;100.00;102174.28;5016569;28;20056;-87
2023/10/08 03:55:55;;;;;;;14.52;4.72;;;;;;;13.91;100.00;102165.25;5016500;28;20037;-87
2023/10/08 03:58:31;;;;;;;12.97;4.40;;;;;;;13.88;100.00;102171.97;5016411;28;20041;-87
2023/10/08 04:01:09;;;;;;;13.15;4.88;;;;;;;13.86;100.00;102171.31;5016226;28;20045;-87
2023/10/08 04:14:16;;;;;;;8.70;4.25;;;;;;;13.74;100.00;102178.41;5017724;28;20045;-87
2023/10/08 04:16:42;;;;;;;12.35;4.50;;;;;;;13.74;100.00;102173.78;5016154;28;20064;-87
2023/10/08 04:19:09;;;;;;;13.23;4.70;;;;;;;13.73;100.00;102184.91;5015857;28;20489;-88
2023/10/08 04:21:38;;;;;;;12.07;4.85;;;;;;;13.70;100.00;102186.19;5015880;28;20048;-87
2023/10/08 04:24:08;;;;;;;10.23;3.97;;;;;;;13.69;100.00;102187.22;5033425;28;20037;-87
2023/10/08 04:26:33;;;;;;;11.32;4.25;;;;;;;13.67;100.00;102195.59;4999575;28;20073;-87
2023/10/08 04:29:07;;;;;;;13.52;4.63;;;;;;;13.68;100.00;102210.06;5033447;28;20076;-87
2023/10/08 04:31:43;;;;;;;9.80;4.18;;;;;;;13.70;100.00;102208.00;5033532;28;20038;-87
2023/10/08 04:34:15;;;;;;;9.07;4.10;;;;;;;13.69;100.00;102212.59;5016170;28;20037;-87
2023/10/08 04:36:45;;;;;;;11.30;4.60;;;;;;;13.69;100.00;102198.13;5016480;28;20035;-88
2023/10/08 04:39:21;;;;;;;10.95;4.35;;;;;;;13.65;100.00;102199.56;5015923;28;20053;-88
2023/10/08 04:41:48;;;;;;;14.05;4.65;;;;;;;13.62;100.00;102206.25;5032083;28;20041;-87
2023/10/08 04:44:17;;;;;;;13.88;4.63;;;;;;;13.60;100.00;102205.63;5015525;28;20084;-87
2023/10/08 04:46:49;;;;;;;14.93;4.87;;;;;;;13.57;100.00;102214.22;5033238;28;20069;-87
2023/10/08 04:49:27;;;;;;;13.02;4.95;;;;;;;13.54;100.00;102208.31;5000464;28;20064;-87
2023/10/08 04:52:14;;;;;;;14.27;4.53;;;;;;;13.52;100.00;102219.41;5016207;28;20029;-87
2023/10/08 04:54:46;;;;;;;11.93;4.45;;;;;;;13.48;100.00;102219.00;5033539;28;20037;-88
2023/10/08 04:57:22;;;;;;;13.20;5.10;;;;;;;13.46;100.00;102222.94;5016632;28;20030;-87
2023/10/08 04:59:50;;;;;;;10.30;5.00;;;;;;;13.44;100.00;102219.59;5016324;28;20045;-87
2023/10/08 05:07:20;;;;;;;11.38;4.53;;;;;;;13.38;100.00;102217.69;5032146;28;20042;-87
2023/10/08 05:10:11;;;;;;;18.73;4.43;;;;;;;13.36;100.00;102223.34;5015905;28;20037;-88
2023/10/08 05:12:40;;;;;;;11.40;4.43;;;;;;;13.42;100.00;102236.16;5016514;28;20034;-87
2023/10/08 05:21:25;;;;;;;10.95;4.38;;;;;;;13.42;100.00;102240.75;5037850;28;20051;-88
2023/10/08 05:34:32;;;;;;;11.63;4.50;;;;;;;13.31;100.00;102244.84;5037328;28;20036;-87
2023/10/08 05:39:40;;;;;;;11.17;4.43;;;;;;;13.30;100.00;102256.78;5035706;28;20095;-87
2023/10/08 05:42:31;;;;;;;;;;;;;;;;;;;;;
2023/10/08 05:57:52;;;;;;;12.20;4.77;;;;;;;13.29;100.00;102244.22;5035872;28;20037;-87
2023/10/08 06:00:29;;;;;;;13.10;4.75;;;;;;;13.25;100.00;102234.75;5002865;28;20048;-88
2023/10/08 06:03:09;;;;;;;12.65;5.15;;;;;;;13.19;100.00;102216.47;5035506;28;20053;-87
2023/10/08 06:06:07;;;;;;;10.48;4.95;;;;;;;13.13;100.00;102224.41;5019193;28;20061;-87
2023/10/08 06:08:49;;;;;;;13.98;5.00;;;;;;;13.08;100.00;102220.56;5019310;28;20033;-88
2023/10/08 06:11:30;;;;;;;11.97;5.20;;;;;;;13.04;100.00;102211.13;5021614;28;20045;-88
2023/10/08 06:14:00;;;;;;;13.07;4.80;;;;;;;13.02;100.00;102216.78;5018826;28;20120;-87
2023/10/08 06:16:41;;;;;;;10.23;4.75;;;;;;;13.03;100.00;102228.53;5036443;28;20033;-87
2023/10/08 06:19:13;;;;;;;12.80;5.22;;;;;;;12.99;100.00;102228.06;5019117;28;20040;-87
2023/10/08 06:21:40;;;;;;;11.45;5.40;;;;;;;12.97;100.00;102227.44;5018564;28;20045;-87
2023/10/08 06:24:10;;;;;;;9.93;5.50;;;;;;;12.97;100.00;102221.97;5036260;28;20131;-87
2023/10/08 06:26:42;;;;;;;14.85;5.40;;;;;;;12.99;100.00;102231.63;5017807;28;20047;-87
2023/10/08 06:29:19;;;;;;;12.25;5.43;;;;;;;13.00;100.00;102248.81;5018034;28;20489;-87
2023/10/08 06:31:51;;;;;;;17.52;4.97;;;;;;;13.05;100.00;102246.34;5018247;28;20042;-87
2023/10/08 06:34:21;;;;;;;14.65;5.40;;;;;;;13.11;100.00;102261.06;5017588;28;20037;-87
2023/10/08 06:36:53;;;;;;;16.90;5.70;;;;;;;13.18;100.00;102252.94;5018227;28;20100;-87
2023/10/08 06:39:25;;;;;;;14.50;5.85;;;;;;;13.21;100.00;102253.38;5018251;28;20041;-87
2023/10/08 06:41:56;;;;;;;12.02;5.55;;;;;;;13.25;100.00;102265.56;5018737;28;20033;-87
2023/10/08 06:44:22;;;;;;;11.30;5.10;;;;;;;13.22;100.00;102249.63;5018105;28;20474;-87
2023/10/08 06:46:48;;;;;;;12.93;5.38;;;;;;;13.23;100.00;102256.75;5017633;28;20036;-87
2023/10/08 06:49:14;;;;;;;16.50;5.60;;;;;;;13.25;100.00;102253.84;5035178;28;20033;-87
2023/10/08 06:51:41;;;;;;;18.15;6.47;;;;;;;13.28;100.00;102264.34;5017412;28;20082;-87
2023/10/08 06:54:13;;;;;;;11.77;5.30;;;;;;;13.25;100.00;102254.66;5035787;28;20048;-87
2023/10/08 06:56:43;;;;;;;16.80;5.65;;;;;;;13.29;100.00;102261.41;5035445;28;20120;-87
2023/10/08 06:59:12;;;;;;;17.05;6.13;;;;;;;13.32;100.00;102268.34;5017723;28;20041;-87
2023/10/08 07:01:51;;;;;;;11.90;5.30;;;;;;;13.37;100.00;102268.63;5003506;28;20053;-87
2023/10/08 07:04:23;;;;;;;14.73;6.18;;;;;;;13.40;100.00;102272.84;5017517;28;20045;-87
2023/10/08 07:06:50;;;;;;;13.53;5.87;;;;;;;13.47;100.00;102281.91;5017637;28;20084;-87
2023/10/08 07:09:28;;;;;;;12.80;5.95;;;;;;;13.59;100.00;102293.09;5017766;28;20104;-87
2023/10/08 07:11:57;;;;;;;13.57;6.05;;;;;;;13.69;100.00;102283.50;5017596;28;20040;-87
2023/10/08 07:14:26;;;;;;;14.98;5.68;;;;;;;13.75;100.00;102289.22;5018186;28;20049;-87
2023/10/08 07:16:54;;;;;;;15.27;6.60;;;;;;;13.78;100.00;102306.00;5017434;28;20096;-87
2023/10/08 07:19:23;;;;;;;13.00;6.23;;;;;;;13.88;100.00;102299.31;5017466;28;20049;-88
2023/10/08 07:21:54;;;;;;;16.13;6.35;;;;;;;13.96;100.00;102294.53;5016709;28;20136;-87
2023/10/08 07:24:22;;;;;;;15.05;6.60;;;;;;;14.07;100.00;102289.56;5017038;28;20053;-87
2023/10/08 07:26:49;;;;;;;19.10;6.72;;;;;;;14.11;100.00;102288.94;5034891;28;20041;-87
2023/10/08 07:29:20;;;;;;;17.25;6.35;;;;;;;14.16;100.00;102299.28;5016546;28;20157;-87
2023/10/08 07:31:49;;;;;;;15.00;6.67;;;;;;;14.30;100.00;102289.22;5016961;28;20044;-87
2023/10/08 07:34:18;;;;;;;15.52;6.20;;;;;;;14.44;100.00;102303.75;5016767;28;20041;-87
2023/10/08 07:36:54;;;;;;;19.27;6.38;;;;;;;14.51;100.00;102301.88;5016523;28;20088;-87
2023/10/08 07:41:56;;;;;;;17.40;6.82;;;;;;;14.74;100.00;102321.50;5034608;28;20045;-87
2023/10/08 07:44:25;;;;;;;13.20;6.47;;;;;;;14.85;100.00;102314.59;5016759;28;20445;-87
2023/10/08 07:46:54;;;;;;;16.42;6.43;;;;;;;15.00;100.00;102317.13;5017113;28;20132;-87
2023/10/08 07:49:22;;;;;;;16.63;6.88;;;;;;;15.20;100.00;102303.44;5025520;28;20034;-87
2023/10/08 07:51:51;;;;;;;13.70;6.55;;;;;;;15.44;100.00;102304.72;5034142;28;20041;-87
2023/10/08 07:54:22;;;;;;;14.00;6.50;;;;;;;15.63;100.00;102304.88;5016541;28;20037;-88
2023/10/08 07:56:49;;;;;;;16.95;6.78;;;;;;;15.73;100.00;102307.19;5017378;28;20096;-87
2023/10/08 07:59:19;;;;;;;19.05;7.07;;;;;;;15.91;100.00;102307.34;5016508;28;20041;-87
2023/10/08 08:01:45;;;;;;;16.70;7.05;;;;;;;16.20;100.00;102316.09;5016408;28;20037;-87
2023/10/08 08:04:21;;;;;;;15.40;7.53;;;;;;;16.45;100.00;102316.19;5034065;28;20124;-87
2023/10/08 08:06:49;;;;;;;19.50;7.95;;;;;;;16.75;100.00;102314.75;5017158;28;20069;-87
2023/10/08 08:09:19;;;;;;;17.52;7.30;;;;;;;17.01;100.00;102324.72;5016011;28;20048;-87
2023/10/08 08:11:48;;;;;;;16.53;8.17;;;;;;;17.27;100.00;102340.13;5016234;28;20528;-88
2023/10/08 08:14:17;;;;;;;20.40;7.32;;;;;;;17.47;100.00;102341.84;5015658;28;20374;-87
2023/10/08 08:16:47;;;;;;;18.48;7.25;;;;;;;17.64;100.00;102350.31;5016193;28;20038;-87
2023/10/08 08:19:15;;;;;;;16.83;7.30;;;;;;;17.70;100.00;102344.78;5016546;28;20041;-87
2023/10/08 08:21:45;;;;;;;14.20;6.78;;;;;;;17.87;100.00;102347.75;5015782;28;20048;-87
2023/10/08 08:24:12;;;;;;;13.07;6.37;;;;;;;18.06;99.46;102345.06;5033757;28;20132;-87
2023/10/08 08:26:58;;;;;;;18.15;6.95;;;;;;;18.20;98.62;102357.56;5015773;28;20051;-87
2023/10/08 08:29:36;;;;;;;19.88;7.43;;;;;;;18.27;97.85;102359.38;5033522;28;20041;-87
2023/10/08 08:32:04;;;;;;;17.00;7.47;;;;;;;18.31;97.97;102358.69;5016467;28;20390;-88
2023/10/08 08:34:29;;;;;;;23.58;8.07;;;;;;;18.35;98.70;102367.28;5015920;28;20044;-88
2023/10/08 08:36:55;;;;;;;17.97;7.73;;;;;;;18.30;98.82;102372.66;4999878;28;20049;-87
2023/10/08 08:39:32;;;;;;;17.97;7.70;;;;;;;18.15;99.37;102373.88;5016228;28;20038;-88
2023/10/08 08:42:01;;;;;;;15.30;7.45;;;;;;;18.04;100.00;102383.72;5016364;28;20049;-87
2023/10/08 08:44:32;;;;;;;19.15;7.85;;;;;;;18.02;100.00;102393.25;5032099;28;20048;-87
2023/10/08 08:47:04;;;;;;;19.37;8.50;;;;;;;18.00;100.00;102390.75;5015795;28;20069;-87
2023/10/08 08:49:34;;;;;;;19.95;8.90;;;;;;;18.07;100.00;102385.19;5019478;28;20131;-88
2023/10/08 08:52:05;;;;;;;24.27;9.27;;;;;;;18.22;99.83;102380.13;5020024;28;20092;-87
2023/10/08 08:54:31;;;;;;;24.48;9.82;;;;;;;18.33;99.42;102383.19;5019928;28;20504;-88
2023/10/08 08:57:04;;;;;;;23.83;9.70;;;;;;;18.49;99.04;102387.22;5020585;28;20041;-87
2023/10/08 08:59:36;;;;;;;30.25;9.43;;;;;;;18.64;97.77;102382.13;5021315;28;20040;-87
2023/10/08 09:02:07;;;;;;;32.78;10.40;;;;;;;18.89;96.19;102379.28;5019478;28;20045;-87
2023/10/08 09:04:33;;;;;;;22.98;9.40;;;;;;;19.18;95.28;102384.16;5020142;28;20091;-87
2023/10/08 09:07:05;;;;;;;24.67;9.97;;;;;;;19.39;94.09;102375.31;5036487;28;20437;-88
2023/10/08 09:09:32;;;;;;;24.58;9.18;;;;;;;19.58;92.40;102383.47;5036993;28;20045;-87
2023/10/08 09:11:57;;;;;;;23.25;9.65;;;;;;;19.79;91.25;102390.34;5019402;28;20064;-88
2023/10/08 09:14:29;;;;;;;24.33;9.33;;;;;;;19.99;89.82;102392.72;5019317;28;20485;-88
2023/10/08 09:16:56;;;;;;;23.92;10.07;;;;;;;20.27;89.32;102393.84;5019776;28;20051;-88
2023/10/08 09:19:25;;;;;;;26.23;9.73;;;;;;;20.41;88.36;102392.50;5020124;28;20381;-88
2023/10/08 09:22:04;;;;;;;27.13;11.32;;;;;;;20.69;88.30;102396.38;5018881;28;20544;-88
2023/10/08 09:24:33;;;;;;;21.50;9.90;;;;;;;20.83;86.79;102397.78;5037268;28;20389;-88
2023/10/08 09:27:25;;;;;;;25.27;10.90;;;;;;;21.13;87.13;102396.66;5019415;28;20030;-88
2023/10/08 09:29:51;;;;;;;29.00;10.13;;;;;;;21.35;83.93;102399.50;5019568;28;20033;-87
2023/10/08 09:32:23;;;;;;;28.47;10.93;;;;;;;21.52;83.32;102394.00;5035778;28;20448;-88
2023/10/08 09:34:50;;;;;;;25.80;11.05;;;;;;;21.67;82.21;102390.66;5019294;28;20516;-88
2023/10/08 09:37:17;;;;;;;25.83;10.57;;;;;;;21.89;81.22;102398.16;5036556;28;20045;-88
2023/10/08 09:39:45;;;;;;;28.45;10.52;;;;;;;22.03;79.69;102401.41;5036546;28;20152;-88
2023/10/08 09:42:14;;;;;;;27.55;10.50;;;;;;;22.07;79.83;102399.78;5018863;28;20050;-88
2023/10/08 09:44:42;;;;;;;22.23;10.57;;;;;;;22.16;80.10;102400.16;5018846;28;20037;-88
2023/10/08 09:47:12;;;;;;;28.27;11.15;;;;;;;22.11;79.13;102395.41;5035466;28;20046;-88
2023/10/08 09:49:56;;;;;;;26.33;11.23;;;;;;;22.27;79.24;102398.38;5018758;28;20132;-88
2023/10/08 09:52:28;;;;;;;27.25;11.50;;;;;;;22.18;79.38;102386.94;5019138;28;20033;-88
2023/10/08 09:55:05;;;;;;;26.77;11.63;;;;;;;22.22;79.32;102379.81;5019220;28;20499;-88
2023/10/08 09:57:30;;;;;;;24.08;11.85;;;;;;;22.31;78.06;102383.78;5019074;28;20041;-88
2023/10/08 09:59:57;;;;;;;33.40;11.83;;;;;;;22.66;76.70;102379.81;5034890;28;20115;-88
2023/10/08 10:02:26;;;;;;;22.15;11.65;;;;;;;22.83;76.40;102376.09;5018869;28;20493;-88
2023/10/08 10:04:54;;;;;;;26.83;11.13;;;;;;;23.22;75.17;102367.63;5018436;28;20041;-88
2023/10/08 10:07:21;;;;;;;26.00;12.00;;;;;;;23.47;73.55;102359.50;5002175;28;20037;-88
2023/10/08 10:09:51;;;;;;;22.03;11.57;;;;;;;23.63;72.92;102357.66;5018520;28;20033;-88
2023/10/08 10:12:25;;;;;;;20.40;11.25;;;;;;;23.99;71.67;102360.69;5036197;28;20046;-88
2023/10/08 10:14:55;;;;;;;28.50;11.20;;;;;;;24.19;70.35;102355.50;5018174;28;20091;-88
2023/10/08 10:17:29;;;;;;;20.52;10.93;;;;;;;24.49;69.68;102366.69;5018336;28;20465;-88
2023/10/08 10:19:59;;;;;;;21.17;11.60;;;;;;;24.66;68.60;102358.16;5018362;28;20044;-88
2023/10/08 10:22:30;;;;;;;23.53;11.30;;;;;;;24.72;68.55;102369.28;5017317;28;20053;-88
2023/10/08 10:25:03;;;;;;;18.83;11.13;;;;;;;24.85;68.73;102377.06;5017091;28;20045;-88
2023/10/08 10:27:32;;;;;;;25.88;11.50;;;;;;;25.28;67.25;102383.19;5017810;28;20034;-88
2023/10/08 10:30:12;;;;;;;26.52;12.30;;;;;;;25.18;67.51;102377.63;5016788;28;20616;-86
2023/10/08 10:32:41;;;;;;;25.85;11.68;;;;;;;24.82;66.86;102366.50;5017629;28;20124;-86
2023/10/08 10:35:11;;;;;;;27.23;12.57;;;;;;;25.12;66.42;102360.13;5016559;28;20063;-86
2023/10/08 10:37:42;;;;;;;24.48;12.30;;;;;;;25.33;65.56;102368.50;5017519;28;20079;-86
2023/10/08 10:40:14;;;;;;;26.52;12.55;;;;;;;25.41;64.78;102367.94;5017704;28;20037;-86
2023/10/08 10:42:53;;;;;;;26.45;12.63;;;;;;;25.51;65.66;102372.63;5016769;28;20029;-86
2023/10/08 10:45:36;;;;;;;22.70;12.55;;;;;;;25.32;65.43;102377.94;5017156;28;20038;-86
2023/10/08 10:48:21;;;;;;;29.43;13.30;;;;;;;25.08;65.91;102377.63;5016954;28;20030;-86
2023/10/08 10:53:31;;;;;;;24.35;12.02;;;;;;;24.62;68.58;102378.41;5035939;28;20076;-86
2023/10/08 10:56:05;;;;;;;31.38;12.75;;;;;;;24.14;70.02;102371.00;5016960;28;20055;-86
2023/10/08 10:58:39;;;;;;;35.17;13.70;;;;;;;23.63;71.82;102377.06;5016616;28;20043;-86
2023/10/08 11:01:15;;;;;;;36.50;13.77;;;;;;;23.41;72.89;102381.88;5016914;28;20037;-86
2023/10/08 11:03:44;;;;;;;31.10;12.82;;;;;;;23.48;73.02;102377.78;5016013;28;20041;-86
2023/10/08 11:06:15;;;;;;;29.60;12.57;;;;;;;23.45;73.10;102375.53;5034430;28;20033;-86
2023/10/08 11:08:48;;;;;;;31.90;12.90;;;;;;;23.30;73.69;102373.50;5016318;28;20042;-86
2023/10/08 11:11:19;;;;;;;32.78;12.70;;;;;;;23.24;74.37;102382.03;5033574;28;20042;-86
2023/10/08 11:13:54;;;;;;;29.77;12.60;;;;;;;23.30;74.98;102376.25;5015485;28;20033;-86
2023/10/08 11:16:25;;;;;;;28.65;11.80;;;;;;;23.51;74.55;102375.59;5016318;28;20041;-86
2023/10/08 11:18:57;;;;;;;31.63;12.27;;;;;;;23.44;74.06;102368.38;5016636;28;20091;-86
2023/10/08 11:24:09;;;;;;;28.73;11.73;;;;;;;22.60;76.22;102380.81;5112209;27;20384;-87
2023/10/08 11:26:54;;;;;;;35.95;11.82;;;;;;;22.14;78.50;102388.53;5093677;28;20068;-87
2023/10/08 11:29:25;;;;;;;29.63;11.20;;;;;;;21.99;79.26;102383.66;5095613;28;20039;-87
2023/10/08 11:31:51;;;;;;;29.00;10.97;;;;;;;22.08;79.85;102384.88;5110538;28;20123;-87
2023/10/08 11:34:23;;;;;;;31.17;11.25;;;;;;;22.05;79.72;102383.44;5092371;28;20032;-86
2023/10/08 11:36:55;;;;;;;21.33;11.10;;;;;;;22.01;79.72;102370.41;5110225;28;20471;-87
2023/10/08 11:39:21;;;;;;;22.27;10.40;;;;;;;21.98;80.21;102376.44;5110085;28;20028;-87
2023/10/08 11:42:16;;;;;;;25.47;10.03;;;;;;;22.10;80.19;102366.13;5110047;28;20030;-87
2023/10/08 11:44:43;;;;;;;24.52;10.75;;;;;;;22.19;78.73;102367.34;5110377;28;20092;-87
2023/10/08 11:47:21;;;;;;;25.75;11.27;;;;;;;22.18;79.26;102368.41;5110142;28;20027;-87
2023/10/08 11:50:09;;;;;;;19.63;10.48;;;;;;;22.21;78.96;102375.38;5094483;28;20032;-87
2023/10/08 11:52:35;;;;;;;25.40;11.32;;;;;;;22.20;79.31;102362.63;5109977;28;20039;-87
2023/10/08 11:55:01;;;;;;;21.67;10.50;;;;;;;22.45;78.66;102356.59;5109422;28;20031;-87
2023/10/08 11:57:27;;;;;;;21.67;10.95;;;;;;;22.92;77.19;102361.50;5110661;28;20028;-88
2023/10/08 11:59:54;;;;;;;28.07;10.87;;;;;;;23.31;75.16;102352.16;5109140;28;20482;-87
2023/10/08 12:02:20;;;;;;;19.23;10.18;;;;;;;23.63;74.07;102351.28;5109631;28;20054;-87
2023/10/08 12:04:49;;;;;;;22.98;10.95;;;;;;;23.78;72.94;102343.09;5075567;28;20088;-87
2023/10/08 12:07:17;;;;;;;22.15;10.32;;;;;;;23.91;72.30;102339.00;5109203;28;20032;-88
2023/10/08 12:09:43;;;;;;;20.25;10.45;;;;;;;24.07;71.23;102342.69;5109997;28;20042;-87
2023/10/08 12:12:09;;;;;;;19.23;10.87;;;;;;;23.97;70.86;102331.56;5109010;28;20067;-87
2023/10/08 12:14:37;;;;;;;20.52;10.43;;;;;;;23.87;71.39;102335.09;5109031;28;20475;-87
2023/10/08 12:17:11;;;;;;;22.77;11.25;;;;;;;23.84;71.38;102330.06;5109346;28;20487;-87
2023/10/08 12:19:42;;;;;;;21.97;10.80;;;;;;;23.58;72.11;102337.44;5093518;28;20057;-86
2023/10/08 12:22:08;;;;;;;19.00;10.25;;;;;;;23.47;72.40;102331.81;5108986;28;20130;-87
2023/10/08 12:24:34;;;;;;;22.52;10.52;;;;;;;23.10;73.62;102332.66;5110244;28;20082;-88
2023/10/08 12:26:59;;;;;;;17.90;9.50;;;;;;;22.82;74.81;102325.44;5109477;28;20139;-87
2023/10/08 12:29:28;;;;;;;16.40;9.27;;;;;;;22.72;75.47;102331.72;5109075;28;20439;-88
2023/10/08 12:31:58;;;;;;;21.10;9.43;;;;;;;23.22;74.35;102328.84;5109131;28;20377;-87
2023/10/08 12:34:29;;;;;;;19.92;9.55;;;;;;;23.17;73.27;102329.66;5100748;28;20506;-88
2023/10/08 12:36:55;;;;;;;23.08;10.38;;;;;;;22.83;74.41;102335.41;5095863;28;20042;-87